sensor_id;sensor_type;location;lat;lon;timestamp;P1;durP1;ratioP1;P2;durP2;ratioP2
12788;SDS011;6458;42.710;23.192;2023-02-17T00:01:25;24.20;;;13.53;;
12788;SDS011;6458;42.710;23.192;2023-02-17T00:03:54;24.17;;;13.07;;
12788;SDS011;6458;42.710;23.192;2023-02-17T00:06:21;19.77;;;12.07;;
12788;SDS011;6458;42.710;23.192;2023-02-17T00:08:48;27.90;;;14.73;;
12788;SDS011;6458;42.710;23.192;2023-02-17T00:11:15;31.83;;;14.17;;
12788;SDS011;6458;42.710;23.192;2023-02-17T00:13:42;21.73;;;14.40;;
12788;SDS011;6458;42.710;23.192;2023-02-17T00:16:09;25.93;;;15.93;;
12788;SDS011;6458;42.710;23.192;2023-02-17T00:18:36;24.13;;;13.60;;
12788;SDS011;6458;42.710;23.192;2023-02-17T00:21:11;27.97;;;14.17;;
12788;SDS011;6458;42.710;23.192;2023-02-17T00:23:38;31.63;;;14.57;;
12788;SDS011;6458;42.710;23.192;2023-02-17T00:26:05;27.23;;;13.93;;
12788;SDS011;6458;42.710;23.192;2023-02-17T00:28:32;29.07;;;16.17;;
12788;SDS011;6458;42.710;23.192;2023-02-17T00:30:58;24.60;;;13.67;;
12788;SDS011;6458;42.710;23.192;2023-02-17T00:33:25;21.33;;;14.27;;
12788;SDS011;6458;42.710;23.192;2023-02-17T00:35:52;35.73;;;18.13;;
12788;SDS011;6458;42.710;23.192;2023-02-17T00:38:20;31.13;;;15.40;;
12788;SDS011;6458;42.710;23.192;2023-02-17T00:40:46;28.53;;;15.83;;
12788;SDS011;6458;42.710;23.192;2023-02-17T00:43:13;32.47;;;15.00;;
12788;SDS011;6458;42.710;23.192;2023-02-17T00:45:40;29.13;;;14.80;;
12788;SDS011;6458;42.710;23.192;2023-02-17T00:48:06;28.43;;;14.67;;
12788;SDS011;6458;42.710;23.192;2023-02-17T00:50:34;24.53;;;13.27;;
12788;SDS011;6458;42.710;23.192;2023-02-17T00:53:01;20.60;;;11.13;;
12788;SDS011;6458;42.710;23.192;2023-02-17T00:55:29;21.60;;;11.77;;
12788;SDS011;6458;42.710;23.192;2023-02-17T00:57:56;17.97;;;10.00;;
12788;SDS011;6458;42.710;23.192;2023-02-17T01:00:23;13.93;;;8.57;;
12788;SDS011;6458;42.710;23.192;2023-02-17T01:02:50;12.87;;;9.03;;
12788;SDS011;6458;42.710;23.192;2023-02-17T01:05:16;19.97;;;10.50;;
12788;SDS011;6458;42.710;23.192;2023-02-17T01:07:43;18.77;;;9.87;;
12788;SDS011;6458;42.710;23.192;2023-02-17T01:10:10;24.93;;;10.67;;
12788;SDS011;6458;42.710;23.192;2023-02-17T01:12:38;12.80;;;7.03;;
12788;SDS011;6458;42.710;23.192;2023-02-17T01:15:05;30.23;;;13.33;;
12788;SDS011;6458;42.710;23.192;2023-02-17T01:17:32;21.77;;;10.47;;
12788;SDS011;6458;42.710;23.192;2023-02-17T01:19:59;15.13;;;9.97;;
12788;SDS011;6458;42.710;23.192;2023-02-17T01:22:26;18.43;;;9.87;;
12788;SDS011;6458;42.710;23.192;2023-02-17T01:24:52;13.67;;;7.70;;
12788;SDS011;6458;42.710;23.192;2023-02-17T01:27:19;10.27;;;7.63;;
12788;SDS011;6458;42.710;23.192;2023-02-17T01:29:47;12.67;;;6.90;;
12788;SDS011;6458;42.710;23.192;2023-02-17T01:32:14;9.97;;;6.90;;
12788;SDS011;6458;42.710;23.192;2023-02-17T01:34:41;19.47;;;11.10;;
12788;SDS011;6458;42.710;23.192;2023-02-17T01:37:07;18.40;;;10.23;;
12788;SDS011;6458;42.710;23.192;2023-02-17T01:39:34;18.23;;;10.97;;
12788;SDS011;6458;42.710;23.192;2023-02-17T01:42:01;19.87;;;12.23;;
12788;SDS011;6458;42.710;23.192;2023-02-17T01:44:29;17.80;;;11.30;;
12788;SDS011;6458;42.710;23.192;2023-02-17T01:46:58;22.67;;;13.63;;
12788;SDS011;6458;42.710;23.192;2023-02-17T01:49:27;19.47;;;12.40;;
12788;SDS011;6458;42.710;23.192;2023-02-17T01:51:56;19.43;;;11.03;;
12788;SDS011;6458;42.710;23.192;2023-02-17T01:54:25;23.50;;;11.90;;
12788;SDS011;6458;42.710;23.192;2023-02-17T01:56:53;24.90;;;12.27;;
12788;SDS011;6458;42.710;23.192;2023-02-17T01:59:22;19.53;;;10.60;;
12788;SDS011;6458;42.710;23.192;2023-02-17T02:01:51;17.53;;;10.10;;
12788;SDS011;6458;42.710;23.192;2023-02-17T02:04:21;15.63;;;9.27;;
12788;SDS011;6458;42.710;23.192;2023-02-17T02:06:49;14.23;;;9.47;;
12788;SDS011;6458;42.710;23.192;2023-02-17T02:09:17;15.80;;;9.50;;
12788;SDS011;6458;42.710;23.192;2023-02-17T02:11:46;14.90;;;9.10;;
12788;SDS011;6458;42.710;23.192;2023-02-17T02:14:13;13.83;;;8.67;;
12788;SDS011;6458;42.710;23.192;2023-02-17T02:16:41;15.70;;;8.87;;
12788;SDS011;6458;42.710;23.192;2023-02-17T02:19:15;12.53;;;8.53;;
12788;SDS011;6458;42.710;23.192;2023-02-17T02:21:58;12.13;;;8.30;;
12788;SDS011;6458;42.710;23.192;2023-02-17T02:24:31;12.27;;;8.40;;
12788;SDS011;6458;42.710;23.192;2023-02-17T02:29:56;13.73;;;9.30;;
12788;SDS011;6458;42.710;23.192;2023-02-17T02:32:32;15.00;;;9.43;;
12788;SDS011;6458;42.710;23.192;2023-02-17T02:35:02;17.77;;;9.93;;
12788;SDS011;6458;42.710;23.192;2023-02-17T02:37:31;18.50;;;10.43;;
12788;SDS011;6458;42.710;23.192;2023-02-17T02:40:00;16.30;;;9.80;;
12788;SDS011;6458;42.710;23.192;2023-02-17T02:42:27;12.17;;;10.23;;
12788;SDS011;6458;42.710;23.192;2023-02-17T02:44:54;19.30;;;11.33;;
12788;SDS011;6458;42.710;23.192;2023-02-17T02:50:04;18.73;;;11.27;;
12788;SDS011;6458;42.710;23.192;2023-02-17T02:52:33;15.20;;;10.20;;
12788;SDS011;6458;42.710;23.192;2023-02-17T02:55:03;15.30;;;9.33;;
12788;SDS011;6458;42.710;23.192;2023-02-17T02:57:36;12.83;;;9.43;;
12788;SDS011;6458;42.710;23.192;2023-02-17T03:00:10;14.33;;;8.77;;
12788;SDS011;6458;42.710;23.192;2023-02-17T03:02:41;15.43;;;9.03;;
12788;SDS011;6458;42.710;23.192;2023-02-17T03:05:11;14.10;;;9.13;;
12788;SDS011;6458;42.710;23.192;2023-02-17T03:07:39;12.57;;;9.03;;
12788;SDS011;6458;42.710;23.192;2023-02-17T03:10:07;16.10;;;9.70;;
12788;SDS011;6458;42.710;23.192;2023-02-17T03:12:34;14.50;;;10.07;;
12788;SDS011;6458;42.710;23.192;2023-02-17T03:15:02;14.83;;;10.13;;
12788;SDS011;6458;42.710;23.192;2023-02-17T03:17:30;19.47;;;10.33;;
12788;SDS011;6458;42.710;23.192;2023-02-17T03:19:57;18.17;;;8.80;;
12788;SDS011;6458;42.710;23.192;2023-02-17T03:22:26;17.00;;;10.70;;
12788;SDS011;6458;42.710;23.192;2023-02-17T03:24:55;19.03;;;11.30;;
12788;SDS011;6458;42.710;23.192;2023-02-17T03:27:24;17.93;;;10.93;;
12788;SDS011;6458;42.710;23.192;2023-02-17T03:29:50;16.97;;;9.83;;
12788;SDS011;6458;42.710;23.192;2023-02-17T03:32:17;17.00;;;9.20;;
12788;SDS011;6458;42.710;23.192;2023-02-17T03:34:44;11.67;;;9.00;;
12788;SDS011;6458;42.710;23.192;2023-02-17T03:37:11;11.17;;;8.57;;
12788;SDS011;6458;42.710;23.192;2023-02-17T03:39:39;10.57;;;8.47;;
12788;SDS011;6458;42.710;23.192;2023-02-17T03:42:06;15.23;;;8.37;;
12788;SDS011;6458;42.710;23.192;2023-02-17T03:44:33;11.30;;;8.77;;
12788;SDS011;6458;42.710;23.192;2023-02-17T03:46:59;21.10;;;12.03;;
12788;SDS011;6458;42.710;23.192;2023-02-17T03:49:26;16.97;;;11.23;;
12788;SDS011;6458;42.710;23.192;2023-02-17T03:51:53;20.47;;;12.27;;
12788;SDS011;6458;42.710;23.192;2023-02-17T03:54:20;20.07;;;11.47;;
12788;SDS011;6458;42.710;23.192;2023-02-17T03:56:48;6.60;;;4.93;;
12788;SDS011;6458;42.710;23.192;2023-02-17T03:59:15;17.60;;;9.27;;
12788;SDS011;6458;42.710;23.192;2023-02-17T04:01:41;15.67;;;9.30;;
12788;SDS011;6458;42.710;23.192;2023-02-17T04:04:08;15.53;;;8.97;;
12788;SDS011;6458;42.710;23.192;2023-02-17T04:06:35;16.90;;;9.67;;
12788;SDS011;6458;42.710;23.192;2023-02-17T04:09:01;13.93;;;9.00;;
12788;SDS011;6458;42.710;23.192;2023-02-17T04:11:28;20.50;;;10.40;;
12788;SDS011;6458;42.710;23.192;2023-02-17T04:13:56;18.10;;;11.90;;
12788;SDS011;6458;42.710;23.192;2023-02-17T04:16:23;18.47;;;10.67;;
12788;SDS011;6458;42.710;23.192;2023-02-17T04:18:50;24.27;;;12.47;;
12788;SDS011;6458;42.710;23.192;2023-02-17T04:21:16;18.13;;;10.63;;
12788;SDS011;6458;42.710;23.192;2023-02-17T04:23:43;22.57;;;11.20;;
12788;SDS011;6458;42.710;23.192;2023-02-17T04:26:10;26.67;;;14.23;;
12788;SDS011;6458;42.710;23.192;2023-02-17T04:28:37;32.07;;;15.57;;
12788;SDS011;6458;42.710;23.192;2023-02-17T04:31:05;27.87;;;13.77;;
12788;SDS011;6458;42.710;23.192;2023-02-17T04:33:32;17.53;;;11.37;;
12788;SDS011;6458;42.710;23.192;2023-02-17T04:35:58;25.93;;;13.83;;
12788;SDS011;6458;42.710;23.192;2023-02-17T04:38:25;32.93;;;16.53;;
12788;SDS011;6458;42.710;23.192;2023-02-17T04:40:53;23.60;;;14.30;;
12788;SDS011;6458;42.710;23.192;2023-02-17T04:43:20;24.37;;;14.17;;
12788;SDS011;6458;42.710;23.192;2023-02-17T04:45:47;21.13;;;11.67;;
12788;SDS011;6458;42.710;23.192;2023-02-17T04:48:15;22.03;;;11.77;;
12788;SDS011;6458;42.710;23.192;2023-02-17T04:50:45;14.73;;;9.50;;
12788;SDS011;6458;42.710;23.192;2023-02-17T04:53:12;17.27;;;9.87;;
12788;SDS011;6458;42.710;23.192;2023-02-17T04:55:39;15.87;;;9.27;;
12788;SDS011;6458;42.710;23.192;2023-02-17T04:58:06;15.43;;;9.70;;
12788;SDS011;6458;42.710;23.192;2023-02-17T05:00:33;16.13;;;9.47;;
12788;SDS011;6458;42.710;23.192;2023-02-17T05:03:00;13.23;;;8.70;;
12788;SDS011;6458;42.710;23.192;2023-02-17T05:05:31;24.03;;;11.97;;
12788;SDS011;6458;42.710;23.192;2023-02-17T05:07:58;24.13;;;12.97;;
12788;SDS011;6458;42.710;23.192;2023-02-17T05:10:25;23.87;;;13.07;;
12788;SDS011;6458;42.710;23.192;2023-02-17T05:12:55;19.67;;;10.80;;
12788;SDS011;6458;42.710;23.192;2023-02-17T05:15:21;23.67;;;11.53;;
12788;SDS011;6458;42.710;23.192;2023-02-17T05:17:48;19.13;;;11.97;;
12788;SDS011;6458;42.710;23.192;2023-02-17T05:20:15;16.77;;;8.63;;
12788;SDS011;6458;42.710;23.192;2023-02-17T05:22:44;12.07;;;8.07;;
12788;SDS011;6458;42.710;23.192;2023-02-17T05:25:10;13.73;;;8.40;;
12788;SDS011;6458;42.710;23.192;2023-02-17T05:27:38;19.43;;;10.53;;
12788;SDS011;6458;42.710;23.192;2023-02-17T05:30:04;13.37;;;9.80;;
12788;SDS011;6458;42.710;23.192;2023-02-17T05:32:31;23.17;;;10.03;;
12788;SDS011;6458;42.710;23.192;2023-02-17T05:34:58;13.47;;;8.40;;
12788;SDS011;6458;42.710;23.192;2023-02-17T05:37:25;16.40;;;9.27;;
12788;SDS011;6458;42.710;23.192;2023-02-17T05:39:53;16.10;;;9.67;;
12788;SDS011;6458;42.710;23.192;2023-02-17T05:42:20;27.37;;;14.63;;
12788;SDS011;6458;42.710;23.192;2023-02-17T05:44:46;23.03;;;13.07;;
12788;SDS011;6458;42.710;23.192;2023-02-17T05:47:13;20.57;;;13.80;;
12788;SDS011;6458;42.710;23.192;2023-02-17T05:49:40;18.20;;;11.97;;
12788;SDS011;6458;42.710;23.192;2023-02-17T05:52:06;22.33;;;12.67;;
12788;SDS011;6458;42.710;23.192;2023-02-17T05:54:33;18.90;;;12.43;;
12788;SDS011;6458;42.710;23.192;2023-02-17T05:57:01;22.43;;;12.40;;
12788;SDS011;6458;42.710;23.192;2023-02-17T05:59:28;27.53;;;16.77;;
12788;SDS011;6458;42.710;23.192;2023-02-17T06:01:54;25.70;;;14.60;;
12788;SDS011;6458;42.710;23.192;2023-02-17T06:04:21;24.03;;;12.80;;
12788;SDS011;6458;42.710;23.192;2023-02-17T06:06:48;22.70;;;14.30;;
12788;SDS011;6458;42.710;23.192;2023-02-17T06:09:15;18.63;;;11.30;;
12788;SDS011;6458;42.710;23.192;2023-02-17T06:11:41;17.50;;;11.13;;
12788;SDS011;6458;42.710;23.192;2023-02-17T06:14:09;17.03;;;11.63;;
12788;SDS011;6458;42.710;23.192;2023-02-17T06:16:36;19.33;;;11.10;;
12788;SDS011;6458;42.710;23.192;2023-02-17T06:19:03;17.97;;;10.93;;
12788;SDS011;6458;42.710;23.192;2023-02-17T06:21:31;15.90;;;10.93;;
12788;SDS011;6458;42.710;23.192;2023-02-17T06:23:58;17.80;;;10.73;;
12788;SDS011;6458;42.710;23.192;2023-02-17T06:26:25;19.70;;;10.73;;
12788;SDS011;6458;42.710;23.192;2023-02-17T06:28:51;14.67;;;9.90;;
12788;SDS011;6458;42.710;23.192;2023-02-17T06:31:20;14.07;;;9.90;;
12788;SDS011;6458;42.710;23.192;2023-02-17T06:33:46;13.53;;;10.07;;
12788;SDS011;6458;42.710;23.192;2023-02-17T06:36:14;13.67;;;10.77;;
12788;SDS011;6458;42.710;23.192;2023-02-17T06:38:41;17.50;;;10.87;;
12788;SDS011;6458;42.710;23.192;2023-02-17T06:41:08;18.10;;;10.83;;
12788;SDS011;6458;42.710;23.192;2023-02-17T06:43:34;14.27;;;10.30;;
12788;SDS011;6458;42.710;23.192;2023-02-17T06:46:04;13.70;;;10.53;;
12788;SDS011;6458;42.710;23.192;2023-02-17T06:48:32;14.80;;;9.60;;
12788;SDS011;6458;42.710;23.192;2023-02-17T06:50:59;16.17;;;11.03;;
12788;SDS011;6458;42.710;23.192;2023-02-17T06:53:26;13.43;;;10.47;;
12788;SDS011;6458;42.710;23.192;2023-02-17T06:55:52;13.93;;;9.70;;
12788;SDS011;6458;42.710;23.192;2023-02-17T06:58:19;16.37;;;10.90;;
12788;SDS011;6458;42.710;23.192;2023-02-17T07:00:46;17.93;;;11.30;;
12788;SDS011;6458;42.710;23.192;2023-02-17T07:03:14;16.10;;;11.20;;
12788;SDS011;6458;42.710;23.192;2023-02-17T07:05:42;15.53;;;11.07;;
12788;SDS011;6458;42.710;23.192;2023-02-17T07:08:09;17.60;;;11.63;;
12788;SDS011;6458;42.710;23.192;2023-02-17T07:10:36;18.47;;;10.67;;
12788;SDS011;6458;42.710;23.192;2023-02-17T07:13:03;16.33;;;10.97;;
12788;SDS011;6458;42.710;23.192;2023-02-17T07:15:29;17.70;;;11.50;;
12788;SDS011;6458;42.710;23.192;2023-02-17T07:17:56;15.67;;;11.30;;
12788;SDS011;6458;42.710;23.192;2023-02-17T07:20:23;16.30;;;9.73;;
12788;SDS011;6458;42.710;23.192;2023-02-17T07:22:51;18.87;;;10.43;;
12788;SDS011;6458;42.710;23.192;2023-02-17T07:25:17;15.30;;;10.17;;
12788;SDS011;6458;42.710;23.192;2023-02-17T07:27:44;20.80;;;12.00;;
12788;SDS011;6458;42.710;23.192;2023-02-17T07:30:11;20.40;;;10.40;;
12788;SDS011;6458;42.710;23.192;2023-02-17T07:32:38;17.97;;;10.57;;
12788;SDS011;6458;42.710;23.192;2023-02-17T07:35:06;14.90;;;9.93;;
12788;SDS011;6458;42.710;23.192;2023-02-17T07:37:33;13.60;;;9.17;;
12788;SDS011;6458;42.710;23.192;2023-02-17T07:40:01;17.60;;;9.53;;
12788;SDS011;6458;42.710;23.192;2023-02-17T07:42:28;17.77;;;10.10;;
12788;SDS011;6458;42.710;23.192;2023-02-17T07:44:55;17.23;;;10.40;;
12788;SDS011;6458;42.710;23.192;2023-02-17T07:47:21;14.13;;;10.10;;
12788;SDS011;6458;42.710;23.192;2023-02-17T07:49:48;14.67;;;9.80;;
12788;SDS011;6458;42.710;23.192;2023-02-17T07:52:15;13.07;;;10.10;;
12788;SDS011;6458;42.710;23.192;2023-02-17T07:54:42;17.07;;;9.83;;
12788;SDS011;6458;42.710;23.192;2023-02-17T07:57:11;13.43;;;10.23;;
12788;SDS011;6458;42.710;23.192;2023-02-17T07:59:37;83.30;;;43.00;;
12788;SDS011;6458;42.710;23.192;2023-02-17T08:02:04;18.40;;;10.63;;
12788;SDS011;6458;42.710;23.192;2023-02-17T08:04:31;13.77;;;9.67;;
12788;SDS011;6458;42.710;23.192;2023-02-17T08:06:57;13.37;;;9.13;;
12788;SDS011;6458;42.710;23.192;2023-02-17T08:09:24;11.33;;;9.13;;
12788;SDS011;6458;42.710;23.192;2023-02-17T08:12:08;13.97;;;9.47;;
12788;SDS011;6458;42.710;23.192;2023-02-17T08:14:57;14.23;;;10.13;;
12788;SDS011;6458;42.710;23.192;2023-02-17T08:17:24;12.47;;;9.80;;
12788;SDS011;6458;42.710;23.192;2023-02-17T08:19:50;11.43;;;9.60;;
12788;SDS011;6458;42.710;23.192;2023-02-17T08:22:17;12.57;;;9.13;;
12788;SDS011;6458;42.710;23.192;2023-02-17T08:24:44;14.70;;;9.67;;
12788;SDS011;6458;42.710;23.192;2023-02-17T08:27:11;14.03;;;8.67;;
12788;SDS011;6458;42.710;23.192;2023-02-17T08:29:38;18.17;;;10.20;;
12788;SDS011;6458;42.710;23.192;2023-02-17T08:32:06;11.90;;;9.20;;
12788;SDS011;6458;42.710;23.192;2023-02-17T08:34:33;11.23;;;9.10;;
12788;SDS011;6458;42.710;23.192;2023-02-17T08:37:00;9.37;;;7.53;;
12788;SDS011;6458;42.710;23.192;2023-02-17T08:39:27;10.20;;;7.60;;
12788;SDS011;6458;42.710;23.192;2023-02-17T08:41:54;7.63;;;6.40;;
12788;SDS011;6458;42.710;23.192;2023-02-17T08:44:21;8.10;;;6.33;;
12788;SDS011;6458;42.710;23.192;2023-02-17T08:46:48;9.07;;;6.43;;
12788;SDS011;6458;42.710;23.192;2023-02-17T08:49:17;7.70;;;6.47;;
12788;SDS011;6458;42.710;23.192;2023-02-17T08:51:45;9.03;;;7.07;;
12788;SDS011;6458;42.710;23.192;2023-02-17T08:54:11;9.30;;;7.53;;
12788;SDS011;6458;42.710;23.192;2023-02-17T08:56:39;7.73;;;6.13;;
12788;SDS011;6458;42.710;23.192;2023-02-17T08:59:06;8.80;;;6.03;;
12788;SDS011;6458;42.710;23.192;2023-02-17T09:01:33;6.87;;;6.17;;
12788;SDS011;6458;42.710;23.192;2023-02-17T09:04:00;8.50;;;6.33;;
12788;SDS011;6458;42.710;23.192;2023-02-17T09:06:32;7.90;;;6.87;;
12788;SDS011;6458;42.710;23.192;2023-02-17T09:09:00;7.70;;;6.33;;
12788;SDS011;6458;42.710;23.192;2023-02-17T09:11:27;8.63;;;6.60;;
12788;SDS011;6458;42.710;23.192;2023-02-17T09:13:53;9.20;;;7.03;;
12788;SDS011;6458;42.710;23.192;2023-02-17T09:16:20;7.77;;;5.77;;
12788;SDS011;6458;42.710;23.192;2023-02-17T09:18:48;8.63;;;6.77;;
12788;SDS011;6458;42.710;23.192;2023-02-17T09:21:15;7.20;;;6.47;;
12788;SDS011;6458;42.710;23.192;2023-02-17T09:23:43;7.17;;;6.47;;
12788;SDS011;6458;42.710;23.192;2023-02-17T09:26:10;7.73;;;5.90;;
12788;SDS011;6458;42.710;23.192;2023-02-17T09:28:38;7.00;;;5.57;;
12788;SDS011;6458;42.710;23.192;2023-02-17T09:31:08;6.57;;;5.97;;
12788;SDS011;6458;42.710;23.192;2023-02-17T09:33:35;7.07;;;6.33;;
12788;SDS011;6458;42.710;23.192;2023-02-17T09:36:02;7.07;;;6.33;;
12788;SDS011;6458;42.710;23.192;2023-02-17T09:38:28;7.40;;;6.43;;
12788;SDS011;6458;42.710;23.192;2023-02-17T09:40:56;12.33;;;9.37;;
12788;SDS011;6458;42.710;23.192;2023-02-17T09:43:27;8.80;;;6.40;;
12788;SDS011;6458;42.710;23.192;2023-02-17T09:45:55;8.27;;;6.73;;
12788;SDS011;6458;42.710;23.192;2023-02-17T09:48:25;7.27;;;5.80;;
12788;SDS011;6458;42.710;23.192;2023-02-17T09:50:53;5.73;;;5.23;;
12788;SDS011;6458;42.710;23.192;2023-02-17T09:53:21;9.73;;;6.47;;
12788;SDS011;6458;42.710;23.192;2023-02-17T09:55:50;8.07;;;6.20;;
12788;SDS011;6458;42.710;23.192;2023-02-17T09:58:21;7.67;;;6.07;;
12788;SDS011;6458;42.710;23.192;2023-02-17T10:00:50;6.80;;;6.10;;
12788;SDS011;6458;42.710;23.192;2023-02-17T10:03:19;6.67;;;5.87;;
12788;SDS011;6458;42.710;23.192;2023-02-17T10:05:48;7.07;;;6.07;;
12788;SDS011;6458;42.710;23.192;2023-02-17T10:08:18;7.03;;;6.10;;
12788;SDS011;6458;42.710;23.192;2023-02-17T10:10:46;9.13;;;6.60;;
12788;SDS011;6458;42.710;23.192;2023-02-17T10:13:13;7.10;;;5.83;;
12788;SDS011;6458;42.710;23.192;2023-02-17T10:15:44;6.67;;;5.83;;
12788;SDS011;6458;42.710;23.192;2023-02-17T10:18:13;5.97;;;5.37;;
12788;SDS011;6458;42.710;23.192;2023-02-17T10:20:43;7.67;;;5.47;;
12788;SDS011;6458;42.710;23.192;2023-02-17T10:23:12;9.17;;;5.80;;
12788;SDS011;6458;42.710;23.192;2023-02-17T10:25:43;6.93;;;5.50;;
12788;SDS011;6458;42.710;23.192;2023-02-17T10:28:15;9.33;;;5.80;;
12788;SDS011;6458;42.710;23.192;2023-02-17T10:30:45;7.43;;;6.30;;
12788;SDS011;6458;42.710;23.192;2023-02-17T10:33:16;7.63;;;5.67;;
12788;SDS011;6458;42.710;23.192;2023-02-17T10:35:50;7.83;;;5.77;;
12788;SDS011;6458;42.710;23.192;2023-02-17T10:38:17;6.17;;;5.53;;
12788;SDS011;6458;42.710;23.192;2023-02-17T10:40:45;6.63;;;5.93;;
12788;SDS011;6458;42.710;23.192;2023-02-17T10:43:14;6.73;;;5.57;;
12788;SDS011;6458;42.710;23.192;2023-02-17T10:45:46;8.67;;;6.27;;
12788;SDS011;6458;42.710;23.192;2023-02-17T10:48:16;8.53;;;5.50;;
12788;SDS011;6458;42.710;23.192;2023-02-17T10:50:44;7.20;;;6.27;;
12788;SDS011;6458;42.710;23.192;2023-02-17T10:53:12;6.60;;;5.87;;
12788;SDS011;6458;42.710;23.192;2023-02-17T10:55:40;7.83;;;6.10;;
12788;SDS011;6458;42.710;23.192;2023-02-17T10:58:10;6.17;;;5.57;;
12788;SDS011;6458;42.710;23.192;2023-02-17T11:00:40;7.37;;;5.93;;
12788;SDS011;6458;42.710;23.192;2023-02-17T11:03:16;6.40;;;5.77;;
12788;SDS011;6458;42.710;23.192;2023-02-17T11:05:43;7.73;;;6.53;;
12788;SDS011;6458;42.710;23.192;2023-02-17T11:08:20;11.27;;;6.27;;
12788;SDS011;6458;42.710;23.192;2023-02-17T11:10:57;6.77;;;5.70;;
12788;SDS011;6458;42.710;23.192;2023-02-17T11:13:27;8.57;;;6.20;;
12788;SDS011;6458;42.710;23.192;2023-02-17T11:15:55;7.77;;;6.57;;
12788;SDS011;6458;42.710;23.192;2023-02-17T11:18:25;6.57;;;5.80;;
12788;SDS011;6458;42.710;23.192;2023-02-17T11:20:58;7.07;;;5.70;;
12788;SDS011;6458;42.710;23.192;2023-02-17T11:23:25;8.00;;;5.27;;
12788;SDS011;6458;42.710;23.192;2023-02-17T11:25:56;8.03;;;5.77;;
12788;SDS011;6458;42.710;23.192;2023-02-17T11:31:30;8.90;;;5.93;;
12788;SDS011;6458;42.710;23.192;2023-02-17T11:33:56;6.73;;;5.93;;
12788;SDS011;6458;42.710;23.192;2023-02-17T11:36:24;6.57;;;5.17;;
12788;SDS011;6458;42.710;23.192;2023-02-17T11:38:52;7.07;;;5.43;;
12788;SDS011;6458;42.710;23.192;2023-02-17T11:41:18;8.90;;;5.80;;
12788;SDS011;6458;42.710;23.192;2023-02-17T11:43:53;6.40;;;5.67;;
12788;SDS011;6458;42.710;23.192;2023-02-17T11:46:21;5.33;;;4.77;;
12788;SDS011;6458;42.710;23.192;2023-02-17T11:48:54;5.63;;;5.10;;
12788;SDS011;6458;42.710;23.192;2023-02-17T11:51:25;5.63;;;5.13;;
12788;SDS011;6458;42.710;23.192;2023-02-17T11:53:57;6.70;;;6.00;;
12788;SDS011;6458;42.710;23.192;2023-02-17T11:56:27;5.70;;;5.20;;
12788;SDS011;6458;42.710;23.192;2023-02-17T11:58:59;5.70;;;5.00;;
12788;SDS011;6458;42.710;23.192;2023-02-17T12:01:34;7.70;;;5.47;;
12788;SDS011;6458;42.710;23.192;2023-02-17T12:04:12;7.20;;;5.37;;
12788;SDS011;6458;42.710;23.192;2023-02-17T12:06:48;7.07;;;5.23;;
12788;SDS011;6458;42.710;23.192;2023-02-17T12:09:20;6.03;;;5.20;;
12788;SDS011;6458;42.710;23.192;2023-02-17T12:11:51;6.57;;;5.20;;
12788;SDS011;6458;42.710;23.192;2023-02-17T12:14:37;8.50;;;5.10;;
12788;SDS011;6458;42.710;23.192;2023-02-17T12:17:10;5.37;;;4.97;;
12788;SDS011;6458;42.710;23.192;2023-02-17T12:19:42;5.47;;;4.90;;
12788;SDS011;6458;42.710;23.192;2023-02-17T12:22:13;5.80;;;5.10;;
12788;SDS011;6458;42.710;23.192;2023-02-17T12:24:53;6.07;;;5.00;;
12788;SDS011;6458;42.710;23.192;2023-02-17T12:27:27;6.30;;;5.70;;
12788;SDS011;6458;42.710;23.192;2023-02-17T12:30:07;5.57;;;5.07;;
12788;SDS011;6458;42.710;23.192;2023-02-17T12:32:41;5.93;;;5.07;;
12788;SDS011;6458;42.710;23.192;2023-02-17T12:35:15;5.43;;;4.90;;
12788;SDS011;6458;42.710;23.192;2023-02-17T12:37:47;5.83;;;5.23;;
12788;SDS011;6458;42.710;23.192;2023-02-17T12:40:17;6.77;;;4.37;;
12788;SDS011;6458;42.710;23.192;2023-02-17T12:42:47;6.60;;;4.70;;
12788;SDS011;6458;42.710;23.192;2023-02-17T12:45:17;6.50;;;5.30;;
12788;SDS011;6458;42.710;23.192;2023-02-17T12:47:46;5.20;;;4.70;;
12788;SDS011;6458;42.710;23.192;2023-02-17T12:50:18;5.40;;;4.90;;
12788;SDS011;6458;42.710;23.192;2023-02-17T12:52:47;6.13;;;5.10;;
12788;SDS011;6458;42.710;23.192;2023-02-17T12:55:17;5.67;;;5.17;;
12788;SDS011;6458;42.710;23.192;2023-02-17T12:57:46;6.00;;;4.97;;
12788;SDS011;6458;42.710;23.192;2023-02-17T13:00:19;6.10;;;5.20;;
12788;SDS011;6458;42.710;23.192;2023-02-17T13:02:46;5.43;;;4.63;;
12788;SDS011;6458;42.710;23.192;2023-02-17T13:05:16;5.53;;;4.83;;
12788;SDS011;6458;42.710;23.192;2023-02-17T13:07:46;5.97;;;4.13;;
12788;SDS011;6458;42.710;23.192;2023-02-17T13:10:20;4.73;;;4.33;;
12788;SDS011;6458;42.710;23.192;2023-02-17T13:12:57;5.83;;;5.23;;
12788;SDS011;6458;42.710;23.192;2023-02-17T13:15:26;5.43;;;4.60;;
12788;SDS011;6458;42.710;23.192;2023-02-17T13:17:54;6.73;;;4.70;;
12788;SDS011;6458;42.710;23.192;2023-02-17T13:20:26;5.97;;;4.33;;
12788;SDS011;6458;42.710;23.192;2023-02-17T13:23:05;5.07;;;4.57;;
12788;SDS011;6458;42.710;23.192;2023-02-17T13:25:33;6.63;;;4.37;;
12788;SDS011;6458;42.710;23.192;2023-02-17T13:28:00;4.67;;;4.27;;
12788;SDS011;6458;42.710;23.192;2023-02-17T13:30:29;4.73;;;4.10;;
12788;SDS011;6458;42.710;23.192;2023-02-17T13:32:59;4.43;;;4.03;;
12788;SDS011;6458;42.710;23.192;2023-02-17T13:35:29;4.47;;;3.60;;
12788;SDS011;6458;42.710;23.192;2023-02-17T13:37:56;4.57;;;3.87;;
12788;SDS011;6458;42.710;23.192;2023-02-17T13:40:35;4.40;;;4.10;;
12788;SDS011;6458;42.710;23.192;2023-02-17T13:43:15;4.43;;;4.03;;
12788;SDS011;6458;42.710;23.192;2023-02-17T13:45:43;3.47;;;3.27;;
12788;SDS011;6458;42.710;23.192;2023-02-17T13:48:11;3.60;;;3.30;;
12788;SDS011;6458;42.710;23.192;2023-02-17T13:50:42;3.83;;;3.63;;
12788;SDS011;6458;42.710;23.192;2023-02-17T13:53:18;3.10;;;2.90;;
12788;SDS011;6458;42.710;23.192;2023-02-17T13:55:47;3.77;;;3.47;;
12788;SDS011;6458;42.710;23.192;2023-02-17T13:58:13;3.90;;;3.60;;
12788;SDS011;6458;42.710;23.192;2023-02-17T14:00:47;3.50;;;3.30;;
12788;SDS011;6458;42.710;23.192;2023-02-17T14:03:17;4.53;;;3.73;;
12788;SDS011;6458;42.710;23.192;2023-02-17T14:05:45;4.73;;;4.20;;
12788;SDS011;6458;42.710;23.192;2023-02-17T14:08:13;4.40;;;4.00;;
12788;SDS011;6458;42.710;23.192;2023-02-17T14:10:42;5.40;;;4.87;;
12788;SDS011;6458;42.710;23.192;2023-02-17T14:13:11;4.67;;;4.23;;
12788;SDS011;6458;42.710;23.192;2023-02-17T14:15:47;4.77;;;4.20;;
12788;SDS011;6458;42.710;23.192;2023-02-17T14:18:14;5.57;;;5.07;;
12788;SDS011;6458;42.710;23.192;2023-02-17T14:20:41;6.53;;;5.77;;
12788;SDS011;6458;42.710;23.192;2023-02-17T14:23:09;7.47;;;5.73;;
12788;SDS011;6458;42.710;23.192;2023-02-17T14:25:37;7.17;;;6.03;;
12788;SDS011;6458;42.710;23.192;2023-02-17T14:28:16;8.57;;;5.97;;
12788;SDS011;6458;42.710;23.192;2023-02-17T14:30:43;10.30;;;6.33;;
12788;SDS011;6458;42.710;23.192;2023-02-17T14:33:17;6.97;;;6.27;;
12788;SDS011;6458;42.710;23.192;2023-02-17T14:35:48;6.87;;;5.57;;
12788;SDS011;6458;42.710;23.192;2023-02-17T14:38:18;6.60;;;6.00;;
12788;SDS011;6458;42.710;23.192;2023-02-17T14:40:45;11.13;;;7.00;;
12788;SDS011;6458;42.710;23.192;2023-02-17T14:43:12;7.10;;;6.40;;
12788;SDS011;6458;42.710;23.192;2023-02-17T14:45:40;9.93;;;6.20;;
12788;SDS011;6458;42.710;23.192;2023-02-17T14:48:07;6.67;;;6.00;;
12788;SDS011;6458;42.710;23.192;2023-02-17T14:50:34;6.60;;;6.00;;
12788;SDS011;6458;42.710;23.192;2023-02-17T14:53:08;7.90;;;6.60;;